createdAt,value
2018-02-02T00:00:38.024Z,14.50
2018-02-02T00:03:05.850Z,16.35
2018-02-02T00:05:33.106Z,15.77
2018-02-02T00:07:59.392Z,14.77
2018-02-02T00:10:25.606Z,15.80
2018-02-02T00:12:52.211Z,16.00
2018-02-02T00:15:19.178Z,14.40
2018-02-02T00:17:46.114Z,13.80
2018-02-02T00:20:13.140Z,16.17
2018-02-02T00:22:39.525Z,15.40
2018-02-02T00:25:06.332Z,13.77
2018-02-02T00:27:33.269Z,14.82
2018-02-02T00:30:00.240Z,13.45
2018-02-02T00:32:27.000Z,14.00
2018-02-02T00:34:53.438Z,13.05
2018-02-02T00:37:20.454Z,14.05
2018-02-02T00:39:46.956Z,14.20
2018-02-02T00:42:13.944Z,12.52
2018-02-02T00:44:40.711Z,16.05
2018-02-02T00:47:07.442Z,13.35
2018-02-02T00:49:33.682Z,14.55
2018-02-02T00:52:01.083Z,12.43
2018-02-02T00:54:28.480Z,13.65
2018-02-02T00:56:56.280Z,14.50
2018-02-02T00:59:23.700Z,13.30
2018-02-02T01:01:49.967Z,12.65
2018-02-02T01:04:16.207Z,15.75
2018-02-02T01:06:43.174Z,12.27
2018-02-02T01:09:09.424Z,13.50
2018-02-02T01:11:35.637Z,13.85
2018-02-02T01:14:01.854Z,16.73
2018-02-02T01:16:28.258Z,13.48
2018-02-02T01:18:54.494Z,15.52
2018-02-02T01:21:22.387Z,15.45
2018-02-02T01:23:49.310Z,15.07
2018-02-02T01:26:16.282Z,15.48
2018-02-02T01:28:43.516Z,13.30
2018-02-02T01:31:10.683Z,15.63
2018-02-02T01:33:36.967Z,14.38
2018-02-02T01:36:03.210Z,14.35
2018-02-02T01:38:30.833Z,14.25
2018-02-02T01:40:57.474Z,14.02
2018-02-02T01:43:23.703Z,14.98
2018-02-02T01:45:50.048Z,14.20
2018-02-02T01:48:21.126Z,15.93
2018-02-02T01:50:49.361Z,12.10
2018-02-02T01:53:15.616Z,12.90
2018-02-02T01:55:42.771Z,14.77
2018-02-02T01:58:10.744Z,14.27
2018-02-02T02:00:38.236Z,15.90
2018-02-02T02:03:04.493Z,15.63
2018-02-02T02:05:30.967Z,15.35
2018-02-02T02:07:57.825Z,15.93
2018-02-02T02:10:24.862Z,14.55
2018-02-02T02:12:51.335Z,14.65
2018-02-02T02:15:18.359Z,12.30
2018-02-02T02:17:45.010Z,15.50
2018-02-02T02:20:11.227Z,15.60
2018-02-02T02:22:37.464Z,15.13
2018-02-02T02:25:03.711Z,14.15
2018-02-02T02:27:30.538Z,12.20
2018-02-02T02:29:56.912Z,12.40
2018-02-02T02:32:24.482Z,15.98
2018-02-02T02:34:50.890Z,15.27
2018-02-02T02:37:17.740Z,16.90
2018-02-02T02:39:44.897Z,17.05
2018-02-02T02:42:12.683Z,15.85
2018-02-02T02:44:39.929Z,16.05
2018-02-02T02:47:06.459Z,16.77
2018-02-02T02:49:33.973Z,14.90
2018-02-02T02:52:00.643Z,16.08
2018-02-02T02:54:27.720Z,15.15
2018-02-02T02:56:54.892Z,14.25
2018-02-02T02:59:22.248Z,15.70
2018-02-02T03:01:50.460Z,14.98
2018-02-02T03:04:17.435Z,14.87
2018-02-02T03:06:43.642Z,15.32
2018-02-02T03:09:11.710Z,14.00
2018-02-02T03:11:39.631Z,14.85
2018-02-02T03:14:06.954Z,19.42
2018-02-02T03:16:34.131Z,16.42
2018-02-02T03:19:01.004Z,17.92
2018-02-02T03:21:27.460Z,18.45
2018-02-02T03:23:55.438Z,20.33
2018-02-02T03:26:22.407Z,16.70
2018-02-02T03:28:49.821Z,19.80
2018-02-02T03:31:16.044Z,21.10
2018-02-02T03:33:42.835Z,23.70
2018-02-02T03:36:09.449Z,19.85
2018-02-02T03:38:36.989Z,15.85
2018-02-02T03:41:03.755Z,19.25
2018-02-02T03:43:30.176Z,14.82
2018-02-02T03:45:57.138Z,14.87
2018-02-02T03:48:23.598Z,17.05
2018-02-02T03:50:50.468Z,16.73
2018-02-02T03:53:16.680Z,14.63
2018-02-02T03:55:43.611Z,15.30
2018-02-02T03:58:09.984Z,17.40
2018-02-02T04:00:36.893Z,15.10
2018-02-02T04:03:03.862Z,16.55
2018-02-02T04:05:30.061Z,18.00
2018-02-02T04:07:56.943Z,13.80
2018-02-02T04:10:23.150Z,16.27
2018-02-02T04:12:49.667Z,16.08
2018-02-02T04:15:16.711Z,15.43
2018-02-02T04:17:43.144Z,16.42
2018-02-02T04:20:09.798Z,16.15
2018-02-02T04:22:37.270Z,14.00
2018-02-02T04:25:04.313Z,15.48
2018-02-02T04:27:31.028Z,15.48
2018-02-02T04:29:58.245Z,16.20
2018-02-02T04:32:25.286Z,15.75
2018-02-02T04:35:06.955Z,15.77
2018-02-02T04:37:34.234Z,13.75
2018-02-02T04:40:01.404Z,14.07
2018-02-02T04:42:28.003Z,15.82
2018-02-02T04:44:55.250Z,21.10
2018-02-02T04:47:22.196Z,17.27
2018-02-02T04:49:49.170Z,15.38
2018-02-02T04:52:16.384Z,16.60
2018-02-02T04:54:42.588Z,16.12
2018-02-02T04:57:09.361Z,14.82
2018-02-02T04:59:36.546Z,14.93
2018-02-02T05:02:04.596Z,15.15
2018-02-02T05:04:31.278Z,15.52
2018-02-02T05:06:58.804Z,16.65
2018-02-02T05:09:25.525Z,17.87
2018-02-02T05:11:53.084Z,15.45
2018-02-02T05:14:21.181Z,15.30
2018-02-02T05:16:48.027Z,17.30
2018-02-02T05:19:15.187Z,15.95
2018-02-02T05:21:42.126Z,17.65
2018-02-02T05:24:08.993Z,19.58
2018-02-02T05:26:35.759Z,17.70
2018-02-02T05:29:03.476Z,19.17
2018-02-02T05:31:29.980Z,19.87
2018-02-02T05:33:56.714Z,18.98
2018-02-02T05:36:23.005Z,17.67
2018-02-02T05:38:49.867Z,20.30
2018-02-02T05:41:16.101Z,16.77
2018-02-02T05:43:43.577Z,19.58
2018-02-02T05:46:10.571Z,18.40
2018-02-02T05:48:36.815Z,17.40
2018-02-02T05:51:03.604Z,15.82
2018-02-02T05:53:29.903Z,15.57
2018-02-02T05:55:56.891Z,14.48
2018-02-02T05:58:23.187Z,15.15
2018-02-02T06:00:50.773Z,16.52
2018-02-02T06:03:17.179Z,16.73
2018-02-02T06:05:45.774Z,15.15
2018-02-02T06:08:12.992Z,16.30
2018-02-02T06:10:39.768Z,17.75
2018-02-02T06:13:06.052Z,15.57
2018-02-02T06:15:32.439Z,18.05
2018-02-02T06:17:58.671Z,16.98
2018-02-02T06:20:25.886Z,17.45
2018-02-02T06:22:53.453Z,18.60
2018-02-02T06:25:19.820Z,18.87
2018-02-02T06:27:46.027Z,15.80
2018-02-02T06:30:12.419Z,14.52
2018-02-02T06:32:38.952Z,15.88
2018-02-02T06:35:05.951Z,18.73
2018-02-02T06:37:32.219Z,18.45
2018-02-02T06:39:58.427Z,18.50
2018-02-02T06:42:24.882Z,19.23
2018-02-02T06:44:51.494Z,20.25
2018-02-02T06:47:17.736Z,20.77
2018-02-02T06:49:44.941Z,22.67
2018-02-02T06:52:11.349Z,21.30
2018-02-02T06:54:39.069Z,22.98
2018-02-02T06:57:06.281Z,21.17
2018-02-02T06:59:33.077Z,19.35
2018-02-02T07:02:00.514Z,19.80
2018-02-02T07:04:27.635Z,18.10
2018-02-02T07:06:53.909Z,15.20
2018-02-02T07:09:20.540Z,13.93
2018-02-02T07:11:48.064Z,13.93
2018-02-02T07:14:14.262Z,12.77
2018-02-02T07:16:41.850Z,12.82
2018-02-02T07:19:08.740Z,14.98
2018-02-02T07:21:35.930Z,13.73
2018-02-02T07:24:03.550Z,11.85
2018-02-02T07:26:29.746Z,13.25
2018-02-02T07:28:56.196Z,13.90
2018-02-02T07:31:23.578Z,13.18
2018-02-02T07:33:50.946Z,13.85
2018-02-02T07:36:19.933Z,13.32
2018-02-02T07:38:47.033Z,12.32
2018-02-02T07:41:15.069Z,13.13
2018-02-02T07:43:41.973Z,13.07
2018-02-02T07:46:08.356Z,12.55
2018-02-02T07:48:34.766Z,13.85
2018-02-02T07:51:01.764Z,13.40
2018-02-02T07:53:28.094Z,13.68
2018-02-02T07:55:55.147Z,13.70
2018-02-02T07:58:21.973Z,14.20
2018-02-02T08:00:54.952Z,13.85
2018-02-02T08:03:21.220Z,14.85
2018-02-02T08:05:48.977Z,14.25
2018-02-02T08:08:16.466Z,13.13
2018-02-02T08:10:43.916Z,14.50
2018-02-02T08:13:10.987Z,13.00
2018-02-02T08:15:37.245Z,12.13
2018-02-02T08:18:04.359Z,12.90
2018-02-02T08:20:30.704Z,11.80
2018-02-02T08:22:57.911Z,12.77
2018-02-02T08:25:24.647Z,13.35
2018-02-02T08:27:50.903Z,13.18
2018-02-02T08:30:18.076Z,12.45
2018-02-02T08:32:44.331Z,10.68
2018-02-02T08:35:10.570Z,11.07
2018-02-02T08:37:37.938Z,11.40
2018-02-02T08:40:04.700Z,10.85
2018-02-02T08:42:32.450Z,10.80
2018-02-02T08:44:59.405Z,9.98
2018-02-02T08:47:26.785Z,9.27
2018-02-02T08:49:54.444Z,9.38
2018-02-02T08:52:21.234Z,10.05
2018-02-02T08:54:47.438Z,8.90
2018-02-02T08:57:13.665Z,9.18
2018-02-02T08:59:40.639Z,9.05
2018-02-02T09:02:06.955Z,8.45
2018-02-02T09:04:34.475Z,8.00
2018-02-02T09:07:01.072Z,9.50
2018-02-02T09:09:28.059Z,10.20
2018-02-02T09:11:55.295Z,9.30
2018-02-02T09:14:21.594Z,8.43
2018-02-02T09:16:48.124Z,9.48
2018-02-02T09:19:15.141Z,9.05
2018-02-02T09:21:52.227Z,7.53
2018-02-02T09:24:18.746Z,8.15
2018-02-02T09:26:46.197Z,8.55
2018-02-02T09:29:13.737Z,7.60
2018-02-02T09:31:40.507Z,7.05
2018-02-02T09:34:06.716Z,8.05
2018-02-02T09:36:33.013Z,9.15
2018-02-02T09:38:59.905Z,8.40
2018-02-02T09:41:26.121Z,7.97
2018-02-02T09:43:53.246Z,8.40
2018-02-02T09:46:20.736Z,8.30
2018-02-02T09:48:47.555Z,8.85
2018-02-02T09:51:14.417Z,8.27
2018-02-02T09:53:40.683Z,8.57
2018-02-02T09:56:07.694Z,8.60
2018-02-02T09:58:34.569Z,8.43
2018-02-02T10:01:01.179Z,7.65
2018-02-02T10:03:28.582Z,8.73
2018-02-02T10:05:55.550Z,6.90
2018-02-02T10:08:21.802Z,8.00
2018-02-02T10:10:48.490Z,7.10
2018-02-02T10:13:15.974Z,7.82
2018-02-02T10:15:42.381Z,8.05
2018-02-02T10:18:10.061Z,7.50
2018-02-02T10:20:36.306Z,7.30
2018-02-02T10:23:02.906Z,8.50
2018-02-02T10:25:29.869Z,7.20
2018-02-02T10:27:57.599Z,7.62
2018-02-02T10:30:25.297Z,7.57
2018-02-02T10:32:52.267Z,7.20
2018-02-02T10:35:19.498Z,8.23
2018-02-02T10:37:47.040Z,7.20
2018-02-02T10:40:14.015Z,9.60
2018-02-02T10:42:40.749Z,7.60
2018-02-02T10:45:07.598Z,6.55
2018-02-02T10:47:33.862Z,6.93
2018-02-02T10:50:01.232Z,6.45
2018-02-02T10:52:27.462Z,6.07
2018-02-02T10:54:53.948Z,6.15
2018-02-02T10:57:20.826Z,5.50
2018-02-02T10:59:47.889Z,6.75
2018-02-02T11:02:20.960Z,6.68
2018-02-02T11:04:47.854Z,6.82
2018-02-02T11:07:14.067Z,5.45
2018-02-02T11:09:41.022Z,6.40
2018-02-02T11:12:07.750Z,6.30
2018-02-02T11:14:34.977Z,5.35
2018-02-02T11:17:01.967Z,5.80
2018-02-02T11:19:28.242Z,6.05
2018-02-02T11:21:54.571Z,5.50
2018-02-02T11:24:21.749Z,5.10
2018-02-02T11:26:48.761Z,4.75
2018-02-02T11:29:15.750Z,5.30
2018-02-02T11:31:43.173Z,4.85
2018-02-02T11:34:10.519Z,5.10
2018-02-02T11:36:36.717Z,4.70
2018-02-02T11:39:02.987Z,4.93
2018-02-02T11:41:29.639Z,4.75
2018-02-02T11:43:56.641Z,5.43
2018-02-02T11:46:23.393Z,4.93
2018-02-02T11:48:49.826Z,5.32
2018-02-02T11:51:16.701Z,4.45
2018-02-02T11:53:42.943Z,4.22
2018-02-02T11:56:09.893Z,4.65
2018-02-02T11:58:36.859Z,4.68
2018-02-02T12:01:03.704Z,3.95
2018-02-02T12:06:03.647Z,5.15
2018-02-02T12:08:30.202Z,4.90
2018-02-02T12:10:58.056Z,4.68
2018-02-02T12:13:24.290Z,5.00
2018-02-02T12:15:50.653Z,5.60
2018-02-02T12:18:17.214Z,4.65
2018-02-02T12:20:43.968Z,5.15
2018-02-02T12:23:17.725Z,4.97
2018-02-02T12:25:47.835Z,5.32
2018-02-02T12:28:20.631Z,4.65
2018-02-02T12:30:49.756Z,5.00
2018-02-02T12:33:22.046Z,4.65
2018-02-02T12:36:04.194Z,5.20
2018-02-02T12:38:31.048Z,4.65
2018-02-02T12:40:58.098Z,5.30
2018-02-02T12:43:25.746Z,5.15
2018-02-02T12:45:51.974Z,4.93
2018-02-02T12:48:30.523Z,4.80
2018-02-02T12:50:59.662Z,5.03
2018-02-02T12:53:26.325Z,4.30
2018-02-02T12:55:52.793Z,4.37
2018-02-02T12:58:20.192Z,3.50
2018-02-02T13:00:47.409Z,3.00
2018-02-02T13:03:15.130Z,2.85
2018-02-02T13:05:43.055Z,2.90
2018-02-02T13:08:09.287Z,2.60
2018-02-02T13:10:35.777Z,5.07
2018-02-02T13:13:03.207Z,3.55
2018-02-02T13:15:30.255Z,4.55
2018-02-02T13:17:56.731Z,3.78
2018-02-02T13:20:24.428Z,2.67
2018-02-02T13:22:51.446Z,2.47
2018-02-02T13:25:17.644Z,2.70
2018-02-02T13:27:45.861Z,3.42
2018-02-02T13:30:12.983Z,3.03
2018-02-02T13:32:39.193Z,2.72
2018-02-02T13:35:07.228Z,2.65
2018-02-02T13:37:34.223Z,3.72
2018-02-02T13:40:00.442Z,2.85
2018-02-02T13:42:28.017Z,3.28
2018-02-02T13:44:54.828Z,3.65
2018-02-02T13:47:21.825Z,3.00
2018-02-02T13:49:48.223Z,2.85
2018-02-02T13:52:15.238Z,3.42
2018-02-02T13:54:41.693Z,3.12
2018-02-02T13:57:09.322Z,3.20
2018-02-02T13:59:36.536Z,3.22
2018-02-02T14:02:03.826Z,2.37
2018-02-02T14:04:30.383Z,3.17
2018-02-02T14:06:56.744Z,2.62
2018-02-02T14:09:24.140Z,2.90
2018-02-02T14:11:50.733Z,3.22
2018-02-02T14:14:16.975Z,2.55
2018-02-02T14:16:43.196Z,2.33
2018-02-02T14:19:09.502Z,2.80
2018-02-02T14:21:36.538Z,2.87
2018-02-02T14:24:03.641Z,2.20
2018-02-02T14:26:29.974Z,2.45
2018-02-02T14:28:57.583Z,2.30
2018-02-02T14:31:25.256Z,3.05
2018-02-02T14:33:52.555Z,2.83
2018-02-02T14:36:19.602Z,2.70
2018-02-02T14:38:46.357Z,2.80
2018-02-02T14:41:12.750Z,3.20
2018-02-02T14:43:38.980Z,2.80
2018-02-02T14:46:05.208Z,2.60
2018-02-02T14:48:31.427Z,2.70
2018-02-02T14:50:58.126Z,2.50
2018-02-02T14:53:24.757Z,2.92
2018-02-02T14:55:52.283Z,2.87
2018-02-02T14:58:18.593Z,2.30
2018-02-02T15:00:45.165Z,2.25
2018-02-02T15:03:12.199Z,2.45
2018-02-02T15:05:39.067Z,2.42
2018-02-02T15:08:05.290Z,3.00
2018-02-02T15:10:31.595Z,2.35
2018-02-02T15:13:01.192Z,2.87
2018-02-02T15:15:27.415Z,2.20
2018-02-02T15:17:53.937Z,2.67
2018-02-02T15:20:20.573Z,3.37
2018-02-02T15:22:50.011Z,3.42
2018-02-02T15:25:17.065Z,3.25
2018-02-02T15:27:43.355Z,3.58
2018-02-02T15:30:09.608Z,2.95
2018-02-02T15:32:36.021Z,2.50
2018-02-02T15:35:03.109Z,3.25
2018-02-02T15:37:29.991Z,2.20
2018-02-02T15:39:56.978Z,2.83
2018-02-02T15:42:23.528Z,3.30
2018-02-02T15:44:50.494Z,4.22
2018-02-02T15:47:17.606Z,2.90
2018-02-02T15:49:44.436Z,4.20
2018-02-02T15:52:10.646Z,3.90
2018-02-02T15:54:37.939Z,4.82
2018-02-02T15:57:04.170Z,6.40
2018-02-02T15:59:30.995Z,7.70
2018-02-02T16:01:57.341Z,5.80
2018-02-02T16:04:23.536Z,5.60
2018-02-02T16:06:49.899Z,6.50
2018-02-02T16:09:16.182Z,5.78
2018-02-02T16:11:43.218Z,6.00
2018-02-02T16:14:10.365Z,5.40
2018-02-02T16:16:37.433Z,7.30
2018-02-02T16:19:04.293Z,7.82
2018-02-02T16:21:30.528Z,7.55
2018-02-02T16:23:56.881Z,7.55
2018-02-02T16:26:23.496Z,9.50
2018-02-02T16:28:50.544Z,10.52
2018-02-02T16:31:16.792Z,8.85
2018-02-02T16:33:43.501Z,8.93
2018-02-02T16:36:09.880Z,21.10
2018-02-02T16:38:36.766Z,8.43
2018-02-02T16:41:03.558Z,6.07
2018-02-02T16:43:31.025Z,5.80
2018-02-02T16:45:57.501Z,6.18
2018-02-02T16:48:24.535Z,6.25
2018-02-02T16:50:51.661Z,5.00
2018-02-02T16:53:18.392Z,5.70
2018-02-02T16:55:44.642Z,6.18
2018-02-02T16:58:11.610Z,7.43
2018-02-02T17:00:38.697Z,7.30
2018-02-02T17:03:05.054Z,7.80
2018-02-02T17:05:32.603Z,8.73
2018-02-02T17:07:59.259Z,9.95
2018-02-02T17:10:25.649Z,8.10
2018-02-02T17:12:51.865Z,7.50
2018-02-02T17:15:18.395Z,8.85
2018-02-02T17:17:45.045Z,9.15
2018-02-02T17:20:11.290Z,7.60
2018-02-02T17:22:38.097Z,6.57
2018-02-02T17:25:04.296Z,7.30
2018-02-02T17:27:31.704Z,8.88
2018-02-02T17:29:58.685Z,8.90
2018-02-02T17:32:25.637Z,8.68
2018-02-02T17:34:52.587Z,7.65
2018-02-02T17:37:19.887Z,9.23
2018-02-02T17:39:46.115Z,8.68
2018-02-02T17:42:12.370Z,9.10
2018-02-02T17:44:38.686Z,10.68
2018-02-02T17:47:04.915Z,10.75
2018-02-02T17:49:32.111Z,10.35
2018-02-02T17:51:59.933Z,9.27
2018-02-02T17:54:26.186Z,10.82
2018-02-02T17:56:53.431Z,10.55
2018-02-02T17:59:20.533Z,9.10
2018-02-02T18:01:48.045Z,10.13
2018-02-02T18:04:15.046Z,8.73
2018-02-02T18:06:41.373Z,9.02
2018-02-02T18:09:07.582Z,9.38
2018-02-02T18:11:34.707Z,11.43
2018-02-02T18:14:01.454Z,11.40
2018-02-02T18:16:27.700Z,8.38
2018-02-02T18:18:53.916Z,7.60
2018-02-02T18:21:21.204Z,7.95
2018-02-02T18:23:48.064Z,8.00
2018-02-02T18:26:15.074Z,7.55
2018-02-02T18:28:41.282Z,10.75
2018-02-02T18:31:07.500Z,9.65
2018-02-02T18:33:33.780Z,9.90
2018-02-02T18:36:00.567Z,10.68
2018-02-02T18:38:28.251Z,11.23
2018-02-02T18:40:55.342Z,11.60
2018-02-02T18:43:21.833Z,11.20
2018-02-02T18:45:49.425Z,10.82
2018-02-02T18:48:15.695Z,9.75
2018-02-02T18:50:43.609Z,9.30
2018-02-02T18:53:10.825Z,8.80
2018-02-02T18:55:37.080Z,7.37
2018-02-02T18:58:04.059Z,8.75
2018-02-02T19:00:30.514Z,9.82
2018-02-02T19:02:57.457Z,9.52
2018-02-02T19:05:25.009Z,8.70
2018-02-02T19:07:52.210Z,11.77
2018-02-02T19:10:19.079Z,11.60
2018-02-02T19:12:45.307Z,10.77
2018-02-02T19:15:11.517Z,9.45
2018-02-02T19:17:37.827Z,8.40
2018-02-02T19:20:04.055Z,9.20
2018-02-02T19:22:30.380Z,8.25
2018-02-02T19:24:57.509Z,9.20
2018-02-02T19:27:24.584Z,11.95
2018-02-02T19:29:51.806Z,11.10
2018-02-02T19:32:19.091Z,14.57
2018-02-02T19:34:46.816Z,10.80
2018-02-02T19:37:14.048Z,12.80
2018-02-02T19:39:41.337Z,12.00
2018-02-02T19:42:08.452Z,11.75
2018-02-02T19:44:35.841Z,10.20
2018-02-02T19:47:02.077Z,11.80
2018-02-02T19:49:28.315Z,10.35
2018-02-02T19:51:55.111Z,10.10
2018-02-02T19:54:21.342Z,12.95
2018-02-02T19:56:48.883Z,13.23
2018-02-02T19:59:15.107Z,10.88
2018-02-02T20:01:41.304Z,10.50
2018-02-02T20:04:08.388Z,9.95
2018-02-02T20:06:36.038Z,9.63
2018-02-02T20:09:02.628Z,11.02
2018-02-02T20:11:28.846Z,9.80
2018-02-02T20:13:56.386Z,9.50
2018-02-02T20:16:23.961Z,8.75
2018-02-02T20:18:50.979Z,8.65
2018-02-02T20:21:18.459Z,7.25
2018-02-02T20:23:45.829Z,8.43
2018-02-02T20:26:13.571Z,9.77
2018-02-02T20:28:41.062Z,9.60
2018-02-02T20:31:08.243Z,8.60
2018-02-02T20:33:35.540Z,7.97
2018-02-02T20:36:02.889Z,8.52
2018-02-02T20:38:30.122Z,9.23
2018-02-02T20:40:57.376Z,9.00
2018-02-02T20:43:24.469Z,9.60
2018-02-02T20:45:51.256Z,7.55
2018-02-02T20:48:18.817Z,8.10
2018-02-02T20:50:45.340Z,9.65
2018-02-02T20:53:12.612Z,9.30
2018-02-02T20:55:38.838Z,11.00
2018-02-02T20:58:05.121Z,9.93
2018-02-02T21:00:32.019Z,11.05
2018-02-02T21:02:59.439Z,11.10
2018-02-02T21:05:27.143Z,10.45
2018-02-02T21:07:54.687Z,11.48
2018-02-02T21:10:20.921Z,10.65
2018-02-02T21:12:47.693Z,9.40
2018-02-02T21:15:15.104Z,10.25
2018-02-02T21:17:42.384Z,9.95
2018-02-02T21:20:09.573Z,9.10
2018-02-02T21:22:36.436Z,10.05
2018-02-02T21:25:02.904Z,10.15
2018-02-02T21:27:30.379Z,8.65
2018-02-02T21:29:57.261Z,7.90
2018-02-02T21:32:24.490Z,9.20
2018-02-02T21:34:50.721Z,6.95
2018-02-02T21:37:17.308Z,8.48
2018-02-02T21:39:43.926Z,8.63
2018-02-02T21:42:11.573Z,8.02
2018-02-02T21:44:37.789Z,7.70
2018-02-02T21:47:04.658Z,8.93
2018-02-02T21:49:30.876Z,9.45
2018-02-02T21:51:57.605Z,8.30
2018-02-02T21:54:23.806Z,7.55
2018-02-02T21:56:50.142Z,9.18
2018-02-02T21:59:16.926Z,8.10
2018-02-02T22:01:43.910Z,8.23
2018-02-02T22:04:10.937Z,7.87
2018-02-02T22:06:37.368Z,8.32
2018-02-02T22:09:04.486Z,9.43
2018-02-02T22:11:31.957Z,9.15
2018-02-02T22:13:59.221Z,9.05
2018-02-02T22:16:25.571Z,9.27
2018-02-02T22:18:52.526Z,9.23
2018-02-02T22:21:20.563Z,9.38
2018-02-02T22:23:48.037Z,8.75
2018-02-02T22:26:15.029Z,9.82
2018-02-02T22:28:42.246Z,10.23
2018-02-02T22:31:09.371Z,9.40
2018-02-02T22:33:36.593Z,8.88
2018-02-02T22:36:04.183Z,9.90
2018-02-02T22:38:30.598Z,9.18
2018-02-02T22:40:56.963Z,9.20
2018-02-02T22:43:24.075Z,8.25
2018-02-02T22:45:50.814Z,8.43
2018-02-02T22:48:17.611Z,8.57
2018-02-02T22:50:44.299Z,9.07
2018-02-02T22:53:11.868Z,8.65
2018-02-02T22:55:38.832Z,7.50
2018-02-02T22:58:06.750Z,7.30
2018-02-02T23:00:33.007Z,8.80
2018-02-02T23:02:59.598Z,9.75
2018-02-02T23:05:26.946Z,9.88
2018-02-02T23:07:54.086Z,8.13
2018-02-02T23:10:20.581Z,8.45
2018-02-02T23:12:48.205Z,8.15
2018-02-02T23:15:14.572Z,7.95
2018-02-02T23:17:41.912Z,7.18
2018-02-02T23:20:08.704Z,7.97
2018-02-02T23:22:35.470Z,8.93
2018-02-02T23:25:02.287Z,9.13
2018-02-02T23:27:29.334Z,9.48
2018-02-02T23:29:55.574Z,10.18
2018-02-02T23:32:21.901Z,9.95
2018-02-02T23:34:48.123Z,11.12
2018-02-02T23:37:15.168Z,10.18
2018-02-02T23:39:42.961Z,8.55
2018-02-02T23:42:09.159Z,11.05
2018-02-02T23:44:35.401Z,9.15
2018-02-02T23:47:02.141Z,10.10
2018-02-02T23:49:29.034Z,10.95
2018-02-02T23:51:57.056Z,10.25
2018-02-02T23:54:23.283Z,10.32
2018-02-02T23:56:50.118Z,13.60
2018-02-02T23:59:16.339Z,12.77
